AirNav   Pilot Hours Calculator
 
 1719 users online  

36MA Beth Israel Deaconess Medical Center Heliport
Boston, Massachusetts, USA

GOING TO BOSTON?


FAA INFORMATION EFFECTIVE 02 JANUARY 2020

Location

FAA Identifier: 36MA
Lat/Long: 42-20-17.3800N 071-06-32.7900W
42-20.289667N 071-06.546500W
42.3381611,-71.1091083
(estimated)
Elevation: 161 ft. / 49 m (estimated)
Variation: 15W (2015)
From city: 3 miles SW of BOSTON, MA
Time zone: UTC -5 (UTC -4 during Daylight Saving Time)
Zip code: 02129

Heliport Operations

Heliport use: Private use. Permission required prior to landing
Activation date: 08/2016
Control tower: no
ARTCC: BOSTON CENTER
FSS: BRIDGEPORT FLIGHT SERVICE STATION
Attendance: CONTINUOUS
Segmented circle: no
Lights: SS-SR

Heliport Communications

WX ASOS at BOS (5 nm E): PHONE 617-567-5762
WX ASOS at OWD (9 nm S): 119.95 (781-762-4314)
WX ASOS at BED (11 nm NW): 124.6 (781-274-9733)
WX ASOS at BVY (17 nm NE): PHONE 978-921-5042

Nearby radio navigation aids

VOR radial/distance  VOR name  Freq  Var
BOSr274/5.4BOSTON VOR/DME112.7016W
LWMr196/24.1LAWRENCE VOR/DME112.5015W
MHTr175/33.8MANCHESTER VOR/DME114.4015W
PVDr035/39.5PROVIDENCE VOR/DME115.6014W
PUTr069/40.0PUTNAM VOR/DME117.4014W

 
NDB name  Hdg/Dist  Freq  Var  ID
STOGE019/13.139715WOW --- .--
MARSHFIELD323/24.036816WIMR .. -- .-.
TAUNTON008/28.122716WTAN - .- -.

Heliport Services

Runway Information

Helipad H1

Dimensions: 49 x 49 ft. / 15 x 15 m
Surface: ROOF/TOP
Runway edge lights: PERI
Latitude: 42-20.289667N
Longitude: 071-06.546500W
Elevation: 161.0 ft.
Traffic pattern: leftleft

Heliport Ownership and Management from official FAA records

Ownership: Privately-owned
Owner: BETH ISRAEL DEACONESS MEDICAL CENTE
330 BROOKLINE AVE
BOSTON, MA 02215
Phone 617-667-7000
Manager: FACILITIES MANAGER
BETH ISRAEL DEACONESS MEDICAL CENTE
BOSTON, MA 02215
Phone 617-636-5000

Additional Remarks

FOR CD CTC BOSTON APCH AT 603-594-5551.

Instrument Procedures

There are no published instrument procedures at 36MA.

Some nearby airports with instrument procedures:

KBOS - General Edward Lawrence Logan International Airport (5 nm E)
KOWD - Norwood Memorial Airport (9 nm S)
KBED - Laurence G Hanscom Field Airport (11 nm NW)
KBVY - Beverly Regional Airport (17 nm NE)
6B6 - Minute Man Air Field (20 nm W)
 
Loc | Ops | Rwys | IFR | FBO | Links
Com | Nav | Svcs | Stats | Notes
Aerial photo
No photo
 
Airport distance calculator
Flying to Beth Israel Deaconess Medical Center Heliport? Find the distance to fly.

From to 36MA

Sunrise and sunset
Times for 23-Jan-2020
 Local
(UTC-5)
 Zulu
(UTC)
Morning civil twilight06:3711:37
Sunrise07:0712:07
Sunset16:4621:46
Evening civil twilight17:1622:16

Current date and time
Zulu (UTC)  23-Jan-2020 21:03:31
Local (UTC-5)  23-Jan-2020 16:03:31
 
METAR
KBOS 
4nm NE 
232054Z 23009KT 10SM SCT130 OVC230 09/M12 A3030 RMK AO2 SLP261 T00891117 56006
KMQE 
7nm S 
231951Z AUTO 24008KT 07/M14 A3028 RMK AO1 SLP270 T00671139
KOWD 
10nm S 
232053Z 20003KT 10SM CLR 09/M13 A3031 RMK AO2 SLP263 T00891128 56005
KBED 
11nm NW 
232051Z 00000KT 10SM OVC250 07/M12 A3028 RMK AO2 SLP272 T00721117 56009
KBVY 
17nm NE 
232053Z 22005KT 10SM CLR 06/M08 A3029 RMK AO2 SLP254 T00561078 56008
TAF
KBOS 
4nm NE 
231726Z 2318/2424 23007KT P6SM SCT250 FM240200 26004KT P6SM BKN250 FM240800 29005KT P6SM BKN200 FM241500 02005KT P6SM FEW015 FM242000 06007KT P6SM BKN015
KBED 
11nm NW 
231726Z 2318/2418 24004KT P6SM BKN250 FM240100 VRB03KT P6SM BKN250 FM241400 02005KT P6SM SCT200
NOTAMs
Click for the latest NOTAMs
NOTAMs are issued by the DoD/FAA and will open in a separate window not controlled by AirNav.

 

 
 

Would you like to see your business listed on this page?

 If your business provides an interesting product or service to pilots, flight crews, aircraft, or users of the Beth Israel Deaconess Medical Center Heliport, you should consider listing it here.  To start the listing process, click on the button below
 
Add a business
 

Other Pages about Beth Israel Deaconess Medical Center Heliport

Update a link
 
Copyright © AirNav, LLC. All rights reserved. Privacy Policy  Contact